首页
METAR-TAF:

METAR-TAF

机场 :

华盛顿杜勒斯国际机场

华盛顿, 弗吉尼亚州, 美国

纬度: 38-56-05N, 经度: 077-26-51W, 海拔: 95米

当前天气观测

该预报发布于56分钟前的09:52 UTC
静风
温度 -3°C
湿度 80%
气压 1025 hPa
能見度: 16.1公里
阴天层高于25000英尺

METAR: KIAD 150952Z 00000KT 10SM OVC250 M03/M06 A3026 RMK AO2 SLP250 T10331061

时间: 05:48 (10:48 UTC)

预报

该预报发布于1小时和35分钟前的09:13 UTC
预报有效从15日的 09点(UTC)到 16日的 12点(UTC)
风速3节,风向多变
能見度: 10公里
阴天层高于25000英尺
从 15日的 1300点(UTC)
风速5节,风向北转西北
能見度: 10公里
多云层高于25000英尺
从 16日的 0300点(UTC)
风速8节,风向,有时为16节阵风
能見度: 10公里
散云层高于25000英尺
从 16日的 1100点(UTC)
风速15节,风向,有时为25节阵风
能見度: 10公里
少量云层高于25000英尺

TAF: KIAD 150913Z 1509/1612 VRB03KT P6SM OVC250 FM151300 33005KT P6SM BKN250 FM160300 35008G16KT P6SM SCT250 FM161100 01015G25KT P6SM FEW250

超过4000个机场的气象观测和天气预报(METAR&TAF报告)。

可查询的气象台以黄色和红色小点在地图上表示。

将鼠标移到小点上方,可查看气象台名称。

然后点击查看天气观测和预报。

如需切换地图:点击带黑十字的绿色按钮放大地图;点击带横线的绿色按钮缩小地图;或者点击绿色箭头查看邻近地区的地图。


METAR-TAF: